sensor_id;sensor_type;location;lat;lon;timestamp;pressure;altitude;pressure_sealevel;temperature;humidity
59859;BME280;45734;53.648;9.566;2023-11-22T00:01:36;55071.19;;;-145.06;100.00
59859;BME280;45734;53.648;9.566;2023-11-22T00:06:36;55131.97;;;-145.06;100.00
59859;BME280;45734;53.648;9.566;2023-11-22T00:11:37;55107.66;;;-145.06;100.00
59859;BME280;45734;53.648;9.566;2023-11-22T00:16:37;55093.47;;;-145.06;100.00
59859;BME280;45734;53.648;9.566;2023-11-22T00:21:40;55115.78;;;-145.06;100.00
59859;BME280;45734;53.648;9.566;2023-11-22T00:26:40;55113.75;;;-145.06;100.00
59859;BME280;45734;53.648;9.566;2023-11-22T00:31:41;55117.78;;;-145.06;100.00
59859;BME280;45734;53.648;9.566;2023-11-22T00:36:42;55107.66;;;-145.06;100.00
59859;BME280;45734;53.648;9.566;2023-11-22T00:41:44;55152.22;;;-145.06;100.00
59859;BME280;45734;53.648;9.566;2023-11-22T00:46:44;55113.75;;;-145.06;100.00
59859;BME280;45734;53.648;9.566;2023-11-22T00:51:45;55105.63;;;-145.06;100.00
59859;BME280;45734;53.648;9.566;2023-11-22T00:56:46;55103.63;;;-145.06;100.00
59859;BME280;45734;53.648;9.566;2023-11-22T01:01:47;55144.13;;;-145.06;100.00
59859;BME280;45734;53.648;9.566;2023-11-22T01:06:47;55085.38;;;-145.06;100.00
59859;BME280;45734;53.648;9.566;2023-11-22T01:11:47;55129.94;;;-145.06;100.00
59859;BME280;45734;53.648;9.566;2023-11-22T01:16:47;55146.16;;;-145.06;100.00
59859;BME280;45734;53.648;9.566;2023-11-22T01:21:48;55160.34;;;-145.06;100.00
59859;BME280;45734;53.648;9.566;2023-11-22T01:26:48;55184.66;;;-145.06;100.00
59859;BME280;45734;53.648;9.566;2023-11-22T01:31:49;55160.34;;;-145.06;100.00
59859;BME280;45734;53.648;9.566;2023-11-22T01:36:50;55152.22;;;-145.06;100.00
59859;BME280;45734;53.648;9.566;2023-11-22T01:41:50;55184.66;;;-145.06;100.00
59859;BME280;45734;53.648;9.566;2023-11-22T01:46:50;55148.19;;;-145.06;100.00
59859;BME280;45734;53.648;9.566;2023-11-22T01:51:51;55164.38;;;-145.06;100.00
59859;BME280;45734;53.648;9.566;2023-11-22T01:56:51;55156.28;;;-145.06;100.00
59859;BME280;45734;53.648;9.566;2023-11-22T02:01:53;55146.16;;;-145.06;100.00
59859;BME280;45734;53.648;9.566;2023-11-22T02:06:53;55162.38;;;-145.06;100.00
59859;BME280;45734;53.648;9.566;2023-11-22T02:11:54;55164.38;;;-145.06;100.00
59859;BME280;45734;53.648;9.566;2023-11-22T02:16:54;55172.50;;;-145.06;100.00
59859;BME280;45734;53.648;9.566;2023-11-22T02:21:54;55219.09;;;-145.06;100.00
59859;BME280;45734;53.648;9.566;2023-11-22T02:26:55;55168.44;;;-145.06;100.00
59859;BME280;45734;53.648;9.566;2023-11-22T02:31:55;55180.59;;;-145.06;100.00
59859;BME280;45734;53.648;9.566;2023-11-22T02:36:56;55174.53;;;-145.06;100.00
59859;BME280;45734;53.648;9.566;2023-11-22T02:41:56;55188.69;;;-145.06;100.00
59859;BME280;45734;53.648;9.566;2023-11-22T02:46:57;55227.19;;;-145.06;100.00
59859;BME280;45734;53.648;9.566;2023-11-22T02:51:58;55178.56;;;-145.06;100.00
59859;BME280;45734;53.648;9.566;2023-11-22T02:56:58;55144.13;;;-145.06;100.00
59859;BME280;45734;53.648;9.566;2023-11-22T03:02:00;55178.56;;;-145.06;100.00
59859;BME280;45734;53.648;9.566;2023-11-22T03:07:01;55131.97;;;-145.06;100.00
59859;BME280;45734;53.648;9.566;2023-11-22T03:12:02;55148.19;;;-145.06;100.00
59859;BME280;45734;53.648;9.566;2023-11-22T03:17:03;55156.28;;;-145.06;100.00
59859;BME280;45734;53.648;9.566;2023-11-22T03:22:03;55190.72;;;-145.06;100.00
59859;BME280;45734;53.648;9.566;2023-11-22T03:27:04;55148.19;;;-145.06;100.00
59859;BME280;45734;53.648;9.566;2023-11-22T03:32:06;55154.25;;;-145.06;100.00
59859;BME280;45734;53.648;9.566;2023-11-22T03:37:06;55166.41;;;-145.06;100.00
59859;BME280;45734;53.648;9.566;2023-11-22T03:42:07;55196.81;;;-145.06;100.00
59859;BME280;45734;53.648;9.566;2023-11-22T03:47:07;55160.34;;;-145.06;100.00
59859;BME280;45734;53.648;9.566;2023-11-22T03:52:10;55148.19;;;-145.06;100.00
59859;BME280;45734;53.648;9.566;2023-11-22T03:57:10;55160.34;;;-145.06;100.00
59859;BME280;45734;53.648;9.566;2023-11-22T04:02:11;55200.84;;;-145.06;100.00
59859;BME280;45734;53.648;9.566;2023-11-22T04:07:11;55215.03;;;-145.06;100.00
59859;BME280;45734;53.648;9.566;2023-11-22T04:12:11;55180.59;;;-145.06;100.00
59859;BME280;45734;53.648;9.566;2023-11-22T04:17:11;55190.72;;;-145.06;100.00
59859;BME280;45734;53.648;9.566;2023-11-22T04:22:12;55204.91;;;-145.06;100.00
59859;BME280;45734;53.648;9.566;2023-11-22T04:27:12;55176.53;;;-145.06;100.00
59859;BME280;45734;53.648;9.566;2023-11-22T04:32:12;55188.69;;;-145.06;100.00
59859;BME280;45734;53.648;9.566;2023-11-22T04:37:13;55184.66;;;-145.06;100.00
59859;BME280;45734;53.648;9.566;2023-11-22T04:42:13;55172.50;;;-145.06;100.00
59859;BME280;45734;53.648;9.566;2023-11-22T04:47:14;55182.63;;;-145.06;100.00
59859;BME280;45734;53.648;9.566;2023-11-22T04:52:14;55190.72;;;-145.06;100.00
59859;BME280;45734;53.648;9.566;2023-11-22T04:57:15;55188.69;;;-145.06;100.00
59859;BME280;45734;53.648;9.566;2023-11-22T05:02:16;55168.44;;;-145.06;100.00
59859;BME280;45734;53.648;9.566;2023-11-22T05:07:16;55196.81;;;-145.06;100.00
59859;BME280;45734;53.648;9.566;2023-11-22T05:12:16;55158.31;;;-145.06;100.00
59859;BME280;45734;53.648;9.566;2023-11-22T05:17:16;55184.66;;;-145.06;100.00
59859;BME280;45734;53.648;9.566;2023-11-22T05:22:17;55182.63;;;-145.06;100.00
59859;BME280;45734;53.648;9.566;2023-11-22T05:27:17;55188.69;;;-145.06;100.00
59859;BME280;45734;53.648;9.566;2023-11-22T05:32:17;55219.09;;;-145.06;100.00
59859;BME280;45734;53.648;9.566;2023-11-22T05:37:18;55168.44;;;-145.06;100.00
59859;BME280;45734;53.648;9.566;2023-11-22T05:42:18;55213.00;;;-145.06;100.00
59859;BME280;45734;53.648;9.566;2023-11-22T05:47:19;55190.72;;;-145.06;100.00
59859;BME280;45734;53.648;9.566;2023-11-22T05:52:19;55204.91;;;-145.06;100.00
59859;BME280;45734;53.648;9.566;2023-11-22T05:57:20;55168.44;;;-145.06;100.00
59859;BME280;45734;53.648;9.566;2023-11-22T06:02:20;55204.91;;;-145.06;100.00
59859;BME280;45734;53.648;9.566;2023-11-22T06:07:21;55168.44;;;-145.06;100.00
59859;BME280;45734;53.648;9.566;2023-11-22T06:12:21;55194.78;;;-145.06;100.00
59859;BME280;45734;53.648;9.566;2023-11-22T06:17:22;55174.53;;;-145.06;100.00
59859;BME280;45734;53.648;9.566;2023-11-22T06:22:22;55198.81;;;-145.06;100.00
59859;BME280;45734;53.648;9.566;2023-11-22T06:27:22;55144.13;;;-145.06;100.00
59859;BME280;45734;53.648;9.566;2023-11-22T06:32:23;55196.81;;;-145.06;100.00
59859;BME280;45734;53.648;9.566;2023-11-22T06:37:23;55172.50;;;-145.06;100.00
59859;BME280;45734;53.648;9.566;2023-11-22T06:42:23;55190.72;;;-145.06;100.00
59859;BME280;45734;53.648;9.566;2023-11-22T06:47:24;55166.41;;;-145.06;100.00
59859;BME280;45734;53.648;9.566;2023-11-22T06:52:24;55152.22;;;-145.06;100.00
59859;BME280;45734;53.648;9.566;2023-11-22T06:57:24;55152.22;;;-145.06;100.00
59859;BME280;45734;53.648;9.566;2023-11-22T07:02:29;55146.16;;;-145.06;100.00
59859;BME280;45734;53.648;9.566;2023-11-22T07:07:29;55105.63;;;-145.06;100.00
59859;BME280;45734;53.648;9.566;2023-11-22T07:12:31;55134.00;;;-145.06;100.00
59859;BME280;45734;53.648;9.566;2023-11-22T07:17:32;55093.47;;;-145.06;100.00
59859;BME280;45734;53.648;9.566;2023-11-22T07:22:33;55107.66;;;-145.06;100.00
59859;BME280;45734;53.648;9.566;2023-11-22T07:27:33;55115.78;;;-145.06;100.00
59859;BME280;45734;53.648;9.566;2023-11-22T07:32:34;55111.72;;;-145.06;100.00
59859;BME280;45734;53.648;9.566;2023-11-22T07:37:35;55121.84;;;-145.06;100.00
59859;BME280;45734;53.648;9.566;2023-11-22T07:42:36;55101.59;;;-145.06;100.00
59859;BME280;45734;53.648;9.566;2023-11-22T07:47:36;55109.69;;;-145.06;100.00
59859;BME280;45734;53.648;9.566;2023-11-22T07:52:39;55101.59;;;-145.06;100.00
59859;BME280;45734;53.648;9.566;2023-11-22T07:57:41;55101.59;;;-145.06;100.00
59859;BME280;45734;53.648;9.566;2023-11-22T08:02:43;55079.31;;;-145.06;100.00
59859;BME280;45734;53.648;9.566;2023-11-22T08:07:44;55103.63;;;-145.06;100.00
59859;BME280;45734;53.648;9.566;2023-11-22T08:12:46;55089.44;;;-145.06;100.00
59859;BME280;45734;53.648;9.566;2023-11-22T08:17:48;55077.28;;;-145.06;100.00
59859;BME280;45734;53.648;9.566;2023-11-22T08:22:48;55083.34;;;-145.06;100.00
59859;BME280;45734;53.648;9.566;2023-11-22T08:27:51;55050.94;;;-145.06;100.00
59859;BME280;45734;53.648;9.566;2023-11-22T08:32:51;55067.16;;;-145.06;100.00
59859;BME280;45734;53.648;9.566;2023-11-22T08:37:53;55050.94;;;-145.06;100.00
59859;BME280;45734;53.648;9.566;2023-11-22T08:42:55;55057.03;;;-145.06;100.00
59859;BME280;45734;53.648;9.566;2023-11-22T08:47:55;55036.75;;;-145.06;100.00
59859;BME280;45734;53.648;9.566;2023-11-22T08:52:55;55059.03;;;-145.06;100.00
59859;BME280;45734;53.648;9.566;2023-11-22T08:57:58;55014.47;;;-145.06;100.00
59859;BME280;45734;53.648;9.566;2023-11-22T09:02:59;55016.50;;;-145.06;100.00
59859;BME280;45734;53.648;9.566;2023-11-22T09:07:59;55038.78;;;-145.06;100.00
59859;BME280;45734;53.648;9.566;2023-11-22T09:12:59;55008.41;;;-145.06;100.00
59859;BME280;45734;53.648;9.566;2023-11-22T09:18:00;55024.59;;;-145.06;100.00
59859;BME280;45734;53.648;9.566;2023-11-22T09:23:00;55038.78;;;-145.06;100.00
59859;BME280;45734;53.648;9.566;2023-11-22T09:28:00;55036.75;;;-145.06;100.00
59859;BME280;45734;53.648;9.566;2023-11-22T09:33:12;55065.13;;;-145.06;100.00
59859;BME280;45734;53.648;9.566;2023-11-22T09:38:15;55042.84;;;-145.06;100.00
59859;BME280;45734;53.648;9.566;2023-11-22T09:43:17;55032.72;;;-145.06;100.00
59859;BME280;45734;53.648;9.566;2023-11-22T09:48:19;55050.94;;;-145.06;100.00
59859;BME280;45734;53.648;9.566;2023-11-22T09:53:34;55046.91;;;-145.06;100.00
59859;BME280;45734;53.648;9.566;2023-11-22T09:58:39;55042.84;;;-145.06;100.00
59859;BME280;45734;53.648;9.566;2023-11-22T10:03:40;55044.88;;;-145.06;100.00
59859;BME280;45734;53.648;9.566;2023-11-22T10:08:41;55050.94;;;-145.06;100.00
59859;BME280;45734;53.648;9.566;2023-11-22T10:13:41;55061.06;;;-145.06;100.00
59859;BME280;45734;53.648;9.566;2023-11-22T10:18:42;55052.97;;;-145.06;100.00
59859;BME280;45734;53.648;9.566;2023-11-22T10:23:43;55014.47;;;-145.06;100.00
59859;BME280;45734;53.648;9.566;2023-11-22T10:28:44;55089.44;;;-145.06;100.00
59859;BME280;45734;53.648;9.566;2023-11-22T10:33:44;55044.88;;;-145.06;100.00
59859;BME280;45734;53.648;9.566;2023-11-22T10:38:48;55061.06;;;-145.06;100.00
59859;BME280;45734;53.648;9.566;2023-11-22T10:43:52;55038.78;;;-145.06;100.00
59859;BME280;45734;53.648;9.566;2023-11-22T10:48:53;55046.91;;;-145.06;100.00
59859;BME280;45734;53.648;9.566;2023-11-22T10:53:53;55050.94;;;-145.06;100.00
59859;BME280;45734;53.648;9.566;2023-11-22T10:58:58;55081.34;;;-145.06;100.00
59859;BME280;45734;53.648;9.566;2023-11-22T11:04:09;55069.19;;;-145.06;100.00
59859;BME280;45734;53.648;9.566;2023-11-22T11:09:12;55081.34;;;-145.06;100.00
59859;BME280;45734;53.648;9.566;2023-11-22T11:14:16;55079.31;;;-145.06;100.00
59859;BME280;45734;53.648;9.566;2023-11-22T11:19:17;55105.63;;;-145.06;100.00
59859;BME280;45734;53.648;9.566;2023-11-22T11:24:18;55077.28;;;-145.06;100.00
59859;BME280;45734;53.648;9.566;2023-11-22T11:29:36;55083.34;;;-145.06;100.00
59859;BME280;45734;53.648;9.566;2023-11-22T11:34:48;55129.94;;;-145.06;99.46
59859;BME280;45734;53.648;9.566;2023-11-22T11:39:49;55087.41;;;-145.06;100.00
59859;BME280;45734;53.648;9.566;2023-11-22T11:45:03;55089.44;;;-145.06;100.00
59859;BME280;45734;53.648;9.566;2023-11-22T11:50:06;55129.94;;;-145.06;100.00
59859;BME280;45734;53.648;9.566;2023-11-22T11:55:07;55115.78;;;-145.06;98.41
59859;BME280;45734;53.648;9.566;2023-11-22T12:00:08;55136.03;;;-145.06;96.86
59859;BME280;45734;53.648;9.566;2023-11-22T12:05:09;55123.88;;;-145.06;96.72
59859;BME280;45734;53.648;9.566;2023-11-22T12:10:09;55168.44;;;-145.06;94.80
59859;BME280;45734;53.648;9.566;2023-11-22T12:15:10;55123.88;;;-145.06;95.27
59859;BME280;45734;53.648;9.566;2023-11-22T12:20:15;55156.28;;;-145.06;93.02
59859;BME280;45734;53.648;9.566;2023-11-22T12:25:17;55148.19;;;-145.06;92.85
59859;BME280;45734;53.648;9.566;2023-11-22T12:30:28;55184.66;;;-145.06;91.15
59859;BME280;45734;53.648;9.566;2023-11-22T12:35:33;55136.03;;;-145.06;93.04
59859;BME280;45734;53.648;9.566;2023-11-22T12:40:34;55194.78;;;-145.06;93.93
59859;BME280;45734;53.648;9.566;2023-11-22T12:45:34;55156.28;;;-145.06;94.58
59859;BME280;45734;53.648;9.566;2023-11-22T12:50:39;55172.50;;;-145.06;95.28
59859;BME280;45734;53.648;9.566;2023-11-22T12:55:43;55174.53;;;-145.06;92.99
59859;BME280;45734;53.648;9.566;2023-11-22T13:00:46;55170.47;;;-145.06;93.19
59859;BME280;45734;53.648;9.566;2023-11-22T13:05:46;55172.50;;;-145.06;95.24
59859;BME280;45734;53.648;9.566;2023-11-22T13:10:49;55188.69;;;-145.06;94.32
59859;BME280;45734;53.648;9.566;2023-11-22T13:15:57;55158.31;;;-145.06;95.08
59859;BME280;45734;53.648;9.566;2023-11-22T13:20:57;55184.66;;;-145.06;94.45
59859;BME280;45734;53.648;9.566;2023-11-22T13:25:58;55208.97;;;-145.06;92.57
59859;BME280;45734;53.648;9.566;2023-11-22T13:30:58;55178.56;;;-145.06;93.62
59859;BME280;45734;53.648;9.566;2023-11-22T13:35:59;55176.53;;;-145.06;94.09
59859;BME280;45734;53.648;9.566;2023-11-22T13:40:59;55200.84;;;-145.06;92.70
59859;BME280;45734;53.648;9.566;2023-11-22T13:46:00;55176.53;;;-145.06;91.65
59859;BME280;45734;53.648;9.566;2023-11-22T13:51:00;55223.13;;;-145.06;91.96
59859;BME280;45734;53.648;9.566;2023-11-22T13:56:01;55239.34;;;-145.06;91.90
59859;BME280;45734;53.648;9.566;2023-11-22T14:01:02;55200.84;;;-145.06;93.19
59859;BME280;45734;53.648;9.566;2023-11-22T14:06:06;55235.28;;;-145.06;91.03
59859;BME280;45734;53.648;9.566;2023-11-22T14:11:06;55225.16;;;-145.06;91.82
59859;BME280;45734;53.648;9.566;2023-11-22T14:16:07;55229.22;;;-145.06;92.87
59859;BME280;45734;53.648;9.566;2023-11-22T14:21:08;55241.38;;;-145.06;88.32
59859;BME280;45734;53.648;9.566;2023-11-22T14:26:10;55217.06;;;-145.06;88.83
59859;BME280;45734;53.648;9.566;2023-11-22T14:31:11;55217.06;;;-145.06;90.38
59859;BME280;45734;53.648;9.566;2023-11-22T14:36:12;55217.06;;;-145.06;90.38
59859;BME280;45734;53.648;9.566;2023-11-22T14:41:12;55225.16;;;-145.06;88.58
59859;BME280;45734;53.648;9.566;2023-11-22T14:46:13;55257.56;;;-145.06;89.22
59859;BME280;45734;53.648;9.566;2023-11-22T14:51:13;55229.22;;;-145.06;89.89
59859;BME280;45734;53.648;9.566;2023-11-22T14:56:13;55249.47;;;-145.06;90.43
59859;BME280;45734;53.648;9.566;2023-11-22T15:01:14;55269.72;;;-145.06;89.43
59859;BME280;45734;53.648;9.566;2023-11-22T15:06:15;55213.00;;;-145.06;89.60
59859;BME280;45734;53.648;9.566;2023-11-22T15:11:15;55265.69;;;-145.06;88.48
59859;BME280;45734;53.648;9.566;2023-11-22T15:16:16;55245.41;;;-145.06;89.21
59859;BME280;45734;53.648;9.566;2023-11-22T15:21:16;55221.13;;;-145.06;89.34
59859;BME280;45734;53.648;9.566;2023-11-22T15:26:18;55257.56;;;-145.06;89.25
59859;BME280;45734;53.648;9.566;2023-11-22T15:31:21;55237.31;;;-145.06;87.33
59859;BME280;45734;53.648;9.566;2023-11-22T15:36:23;55253.53;;;-145.06;87.34
59859;BME280;45734;53.648;9.566;2023-11-22T15:41:23;55257.56;;;-145.06;86.37
59859;BME280;45734;53.648;9.566;2023-11-22T15:46:23;55271.75;;;-145.06;85.34
59859;BME280;45734;53.648;9.566;2023-11-22T15:51:24;55310.25;;;-145.06;86.15
59859;BME280;45734;53.648;9.566;2023-11-22T15:56:25;55259.59;;;-145.06;84.73
59859;BME280;45734;53.648;9.566;2023-11-22T16:01:27;55261.63;;;-145.06;86.88
59859;BME280;45734;53.648;9.566;2023-11-22T16:06:28;55231.25;;;-145.06;89.05
59859;BME280;45734;53.648;9.566;2023-11-22T16:11:28;55269.72;;;-145.06;87.11
59859;BME280;45734;53.648;9.566;2023-11-22T16:16:29;55271.75;;;-145.06;88.54
59859;BME280;45734;53.648;9.566;2023-11-22T16:21:29;55273.78;;;-145.06;88.46
59859;BME280;45734;53.648;9.566;2023-11-22T16:26:29;55257.56;;;-145.06;89.55
59859;BME280;45734;53.648;9.566;2023-11-22T16:31:30;55235.28;;;-145.06;91.03
59859;BME280;45734;53.648;9.566;2023-11-22T16:36:30;55253.53;;;-145.06;91.53
59859;BME280;45734;53.648;9.566;2023-11-22T16:41:31;55233.25;;;-145.06;92.65
59859;BME280;45734;53.648;9.566;2023-11-22T16:46:31;55255.56;;;-145.06;92.28
59859;BME280;45734;53.648;9.566;2023-11-22T16:51:33;55245.41;;;-145.06;92.60
59859;BME280;45734;53.648;9.566;2023-11-22T16:56:33;55235.28;;;-145.06;92.41
59859;BME280;45734;53.648;9.566;2023-11-22T17:01:34;55241.38;;;-145.06;92.69
59859;BME280;45734;53.648;9.566;2023-11-22T17:06:34;55215.03;;;-145.06;94.09
59859;BME280;45734;53.648;9.566;2023-11-22T17:11:35;55215.03;;;-145.06;94.14
59859;BME280;45734;53.648;9.566;2023-11-22T17:16:36;55261.63;;;-145.06;94.31
59859;BME280;45734;53.648;9.566;2023-11-22T17:21:37;55217.06;;;-145.06;94.85
59859;BME280;45734;53.648;9.566;2023-11-22T17:26:37;55233.25;;;-145.06;93.10
59859;BME280;45734;53.648;9.566;2023-11-22T17:31:37;55233.25;;;-145.06;96.41
59859;BME280;45734;53.648;9.566;2023-11-22T17:36:38;55263.66;;;-145.06;97.96
59859;BME280;45734;53.648;9.566;2023-11-22T17:41:38;55233.25;;;-145.06;97.26
59859;BME280;45734;53.648;9.566;2023-11-22T17:46:41;55194.78;;;-145.06;98.18
59859;BME280;45734;53.648;9.566;2023-11-22T17:51:42;55186.66;;;-145.06;99.78
59859;BME280;45734;53.648;9.566;2023-11-22T17:56:44;55215.03;;;-145.06;99.08
59859;BME280;45734;53.648;9.566;2023-11-22T18:01:44;55223.13;;;-145.06;99.25
59859;BME280;45734;53.648;9.566;2023-11-22T18:06:44;55219.09;;;-145.06;100.00
59859;BME280;45734;53.648;9.566;2023-11-22T18:11:45;55225.16;;;-145.06;100.00
59859;BME280;45734;53.648;9.566;2023-11-22T18:16:45;55217.06;;;-145.06;100.00
59859;BME280;45734;53.648;9.566;2023-11-22T18:21:45;55164.38;;;-145.06;100.00
59859;BME280;45734;53.648;9.566;2023-11-22T18:26:46;55213.00;;;-145.06;100.00
59859;BME280;45734;53.648;9.566;2023-11-22T18:31:46;55184.66;;;-145.06;100.00
59859;BME280;45734;53.648;9.566;2023-11-22T18:36:46;55192.75;;;-145.06;100.00
59859;BME280;45734;53.648;9.566;2023-11-22T18:41:46;55192.75;;;-145.06;100.00
59859;BME280;45734;53.648;9.566;2023-11-22T18:46:47;55204.91;;;-145.06;100.00
59859;BME280;45734;53.648;9.566;2023-11-22T18:51:48;55204.91;;;-145.06;100.00
59859;BME280;45734;53.648;9.566;2023-11-22T18:56:51;55192.75;;;-145.06;100.00
59859;BME280;45734;53.648;9.566;2023-11-22T19:01:52;55206.94;;;-145.06;100.00
59859;BME280;45734;53.648;9.566;2023-11-22T19:06:53;55202.88;;;-145.06;100.00
59859;BME280;45734;53.648;9.566;2023-11-22T19:11:53;55202.88;;;-145.06;100.00
59859;BME280;45734;53.648;9.566;2023-11-22T19:16:53;55204.91;;;-145.06;100.00
59859;BME280;45734;53.648;9.566;2023-11-22T19:21:53;55198.81;;;-145.06;100.00
59859;BME280;45734;53.648;9.566;2023-11-22T19:26:54;55206.94;;;-145.06;100.00
59859;BME280;45734;53.648;9.566;2023-11-22T19:31:55;55180.59;;;-145.06;100.00
59859;BME280;45734;53.648;9.566;2023-11-22T19:36:56;55208.97;;;-145.06;100.00
59859;BME280;45734;53.648;9.566;2023-11-22T19:41:57;55200.84;;;-145.06;100.00
59859;BME280;45734;53.648;9.566;2023-11-22T19:46:57;55160.34;;;-145.06;100.00
59859;BME280;45734;53.648;9.566;2023-11-22T19:51:57;55160.34;;;-145.06;100.00
59859;BME280;45734;53.648;9.566;2023-11-22T19:56:58;55166.41;;;-145.06;100.00
59859;BME280;45734;53.648;9.566;2023-11-22T20:01:58;55172.50;;;-145.06;100.00
59859;BME280;45734;53.648;9.566;2023-11-22T20:06:58;55186.66;;;-145.06;100.00
59859;BME280;45734;53.648;9.566;2023-11-22T20:11:59;55180.59;;;-145.06;100.00
59859;BME280;45734;53.648;9.566;2023-11-22T20:16:59;55142.09;;;-145.06;100.00
59859;BME280;45734;53.648;9.566;2023-11-22T20:21:59;55136.03;;;-145.06;100.00
59859;BME280;45734;53.648;9.566;2023-11-22T20:27:00;55152.22;;;-145.06;100.00
59859;BME280;45734;53.648;9.566;2023-11-22T20:32:00;55208.97;;;-145.06;100.00
59859;BME280;45734;53.648;9.566;2023-11-22T20:37:00;55115.78;;;-145.06;100.00
59859;BME280;45734;53.648;9.566;2023-11-22T20:42:00;55152.22;;;-145.06;100.00
59859;BME280;45734;53.648;9.566;2023-11-22T20:47:01;55152.22;;;-145.06;100.00
59859;BME280;45734;53.648;9.566;2023-11-22T20:52:01;55127.94;;;-145.06;100.00
59859;BME280;45734;53.648;9.566;2023-11-22T20:57:02;55127.94;;;-145.06;100.00
59859;BME280;45734;53.648;9.566;2023-11-22T21:02:02;55109.69;;;-145.06;100.00
59859;BME280;45734;53.648;9.566;2023-11-22T21:07:03;55127.94;;;-145.06;100.00
59859;BME280;45734;53.648;9.566;2023-11-22T21:12:04;55123.88;;;-145.06;100.00
59859;BME280;45734;53.648;9.566;2023-11-22T21:17:06;55113.75;;;-145.06;100.00
59859;BME280;45734;53.648;9.566;2023-11-22T21:22:06;55113.75;;;-145.06;100.00
59859;BME280;45734;53.648;9.566;2023-11-22T21:27:07;55127.94;;;-145.06;100.00
59859;BME280;45734;53.648;9.566;2023-11-22T21:32:08;55107.66;;;-145.06;100.00
59859;BME280;45734;53.648;9.566;2023-11-22T21:37:08;55081.34;;;-145.06;100.00
59859;BME280;45734;53.648;9.566;2023-11-22T21:42:09;55113.75;;;-145.06;100.00
59859;BME280;45734;53.648;9.566;2023-11-22T21:47:09;55099.56;;;-145.06;100.00
59859;BME280;45734;53.648;9.566;2023-11-22T21:52:10;55099.56;;;-145.06;100.00
59859;BME280;45734;53.648;9.566;2023-11-22T21:57:10;55091.47;;;-145.06;100.00
59859;BME280;45734;53.648;9.566;2023-11-22T22:02:10;55091.47;;;-145.06;100.00
59859;BME280;45734;53.648;9.566;2023-11-22T22:07:11;55065.13;;;-145.06;100.00
59859;BME280;45734;53.648;9.566;2023-11-22T22:12:11;55071.19;;;-145.06;100.00
59859;BME280;45734;53.648;9.566;2023-11-22T22:17:12;55069.19;;;-145.06;100.00
59859;BME280;45734;53.648;9.566;2023-11-22T22:22:12;55055.00;;;-145.06;100.00
59859;BME280;45734;53.648;9.566;2023-11-22T22:27:12;55032.72;;;-145.06;100.00
59859;BME280;45734;53.648;9.566;2023-11-22T22:32:12;55028.66;;;-145.06;100.00
59859;BME280;45734;53.648;9.566;2023-11-22T22:37:13;55030.69;;;-145.06;100.00
59859;BME280;45734;53.648;9.566;2023-11-22T22:42:13;55038.78;;;-145.06;100.00
59859;BME280;45734;53.648;9.566;2023-11-22T22:47:13;55006.38;;;-145.06;100.00
59859;BME280;45734;53.648;9.566;2023-11-22T22:52:14;55032.72;;;-145.06;100.00
59859;BME280;45734;53.648;9.566;2023-11-22T22:57:14;54982.06;;;-145.06;100.00
59859;BME280;45734;53.648;9.566;2023-11-22T23:02:15;54971.94;;;-145.06;100.00
59859;BME280;45734;53.648;9.566;2023-11-22T23:07:16;55016.50;;;-145.06;100.00
59859;BME280;45734;53.648;9.566;2023-11-22T23:12:16;55020.56;;;-145.06;100.00
59859;BME280;45734;53.648;9.566;2023-11-22T23:17:17;55000.31;;;-145.06;100.00
59859;BME280;45734;53.648;9.566;2023-11-22T23:22:18;54969.91;;;-145.06;100.00
59859;BME280;45734;53.648;9.566;2023-11-22T23:27:18;54967.88;;;-145.06;100.00
59859;BME280;45734;53.648;9.566;2023-11-22T23:32:18;54957.75;;;-145.06;100.00
59859;BME280;45734;53.648;9.566;2023-11-22T23:37:19;54957.75;;;-145.06;100.00
59859;BME280;45734;53.648;9.566;2023-11-22T23:42:19;54980.03;;;-145.06;100.00
59859;BME280;45734;53.648;9.566;2023-11-22T23:47:20;54949.66;;;-145.06;100.00
59859;BME280;45734;53.648;9.566;2023-11-22T23:52:20;54935.47;;;-145.06;100.00
59859;BME280;45734;53.648;9.566;2023-11-22T23:57:21;54925.34;;;-145.06;100.00
